sensor_id;sensor_type;location;lat;lon;timestamp;pressure;altitude;pressure_sealevel;temperature;humidity
72086;BME280;64750;52.134;5.424;2023-07-29T00:00:05;100916.03;;;18.99;80.45
72086;BME280;64750;52.134;5.424;2023-07-29T00:02:33;100902.88;;;18.97;80.21
72086;BME280;64750;52.134;5.424;2023-07-29T00:04:59;100900.06;;;18.99;80.16
72086;BME280;64750;52.134;5.424;2023-07-29T00:07:26;100890.38;;;18.98;80.29
72086;BME280;64750;52.134;5.424;2023-07-29T00:09:52;100896.19;;;18.93;80.31
72086;BME280;64750;52.134;5.424;2023-07-29T00:12:19;100885.22;;;18.86;80.32
72086;BME280;64750;52.134;5.424;2023-07-29T00:14:46;100887.88;;;18.86;80.32
72086;BME280;64750;52.134;5.424;2023-07-29T00:17:12;100886.06;;;18.87;80.15
72086;BME280;64750;52.134;5.424;2023-07-29T00:19:38;100873.72;;;18.86;80.24
72086;BME280;64750;52.134;5.424;2023-07-29T00:22:05;100873.03;;;18.84;80.34
72086;BME280;64750;52.134;5.424;2023-07-29T00:24:32;100871.50;;;18.81;79.91
72086;BME280;64750;52.134;5.424;2023-07-29T00:26:58;100868.69;;;18.83;80.09
72086;BME280;64750;52.134;5.424;2023-07-29T00:29:25;100868.81;;;18.81;80.00
72086;BME280;64750;52.134;5.424;2023-07-29T00:31:51;100861.16;;;18.78;79.97
72086;BME280;64750;52.134;5.424;2023-07-29T00:34:18;100859.47;;;18.77;80.21
72086;BME280;64750;52.134;5.424;2023-07-29T00:36:46;100846.56;;;18.73;79.84
72086;BME280;64750;52.134;5.424;2023-07-29T00:39:12;100846.56;;;18.73;80.32
72086;BME280;64750;52.134;5.424;2023-07-29T00:41:39;100840.84;;;18.67;80.17
72086;BME280;64750;52.134;5.424;2023-07-29T00:44:06;100858.97;;;18.64;79.85
72086;BME280;64750;52.134;5.424;2023-07-29T00:46:34;100871.00;;;18.58;80.94
72086;BME280;64750;52.134;5.424;2023-07-29T00:49:02;100866.38;;;18.60;80.96
72086;BME280;64750;52.134;5.424;2023-07-29T00:51:28;100872.25;;;18.64;80.82
72086;BME280;64750;52.134;5.424;2023-07-29T00:53:55;100872.94;;;18.66;81.05
72086;BME280;64750;52.134;5.424;2023-07-29T00:56:21;100867.19;;;18.71;80.86
72086;BME280;64750;52.134;5.424;2023-07-29T00:58:48;100856.09;;;18.75;80.58
72086;BME280;64750;52.134;5.424;2023-07-29T01:01:14;100851.31;;;18.79;80.28
72086;BME280;64750;52.134;5.424;2023-07-29T01:03:41;100849.63;;;18.78;80.34
72086;BME280;64750;52.134;5.424;2023-07-29T01:06:13;100848.66;;;18.79;80.62
72086;BME280;64750;52.134;5.424;2023-07-29T01:14:04;100847.69;;;18.70;80.21
72086;BME280;64750;52.134;5.424;2023-07-29T01:16:42;100844.63;;;18.65;80.43
72086;BME280;64750;52.134;5.424;2023-07-29T01:19:26;100853.91;;;18.61;80.39
72086;BME280;64750;52.134;5.424;2023-07-29T01:21:59;100854.06;;;18.59;80.54
72086;BME280;64750;52.134;5.424;2023-07-29T01:24:27;100857.84;;;18.57;80.51
72086;BME280;64750;52.134;5.424;2023-07-29T01:26:53;100855.59;;;18.52;80.24
72086;BME280;64750;52.134;5.424;2023-07-29T01:29:20;100849.75;;;18.48;80.31
72086;BME280;64750;52.134;5.424;2023-07-29T01:31:48;100853.25;;;18.49;80.43
72086;BME280;64750;52.134;5.424;2023-07-29T01:34:27;100853.94;;;18.51;80.60
72086;BME280;64750;52.134;5.424;2023-07-29T01:36:57;100857.59;;;18.50;80.66
72086;BME280;64750;52.134;5.424;2023-07-29T01:39:29;100853.41;;;18.47;80.31
72086;BME280;64750;52.134;5.424;2023-07-29T01:41:58;100849.75;;;18.48;80.68
72086;BME280;64750;52.134;5.424;2023-07-29T01:44:25;100848.19;;;18.46;80.68
72086;BME280;64750;52.134;5.424;2023-07-29T01:46:52;100841.06;;;18.46;80.74
72086;BME280;64750;52.134;5.424;2023-07-29T01:49:18;100848.19;;;18.46;80.84
72086;BME280;64750;52.134;5.424;2023-07-29T01:51:45;100843.03;;;18.44;80.62
72086;BME280;64750;52.134;5.424;2023-07-29T01:54:11;100842.47;;;18.41;80.54
72086;BME280;64750;52.134;5.424;2023-07-29T01:56:38;100838.41;;;18.36;80.79
72086;BME280;64750;52.134;5.424;2023-07-29T01:59:04;100844.59;;;18.37;81.28
72086;BME280;64750;52.134;5.424;2023-07-29T02:01:31;100837.13;;;18.41;81.44
72086;BME280;64750;52.134;5.424;2023-07-29T02:03:58;100832.66;;;18.41;81.42
72086;BME280;64750;52.134;5.424;2023-07-29T02:06:24;100837.13;;;18.41;81.62
72086;BME280;64750;52.134;5.424;2023-07-29T02:08:51;100824.38;;;18.44;81.85
72086;BME280;64750;52.134;5.424;2023-07-29T02:11:17;100831.81;;;18.50;81.56
72086;BME280;64750;52.134;5.424;2023-07-29T02:13:46;100824.22;;;18.56;81.23
72086;BME280;64750;52.134;5.424;2023-07-29T02:16:13;100823.09;;;18.58;81.60
72086;BME280;64750;52.134;5.424;2023-07-29T02:18:39;100826.47;;;18.60;81.54
72086;BME280;64750;52.134;5.424;2023-07-29T02:21:05;100822.81;;;18.61;82.12
72086;BME280;64750;52.134;5.424;2023-07-29T02:23:32;100819.31;;;18.61;81.73
72086;BME280;64750;52.134;5.424;2023-07-29T02:25:59;100822.13;;;18.59;81.58
72086;BME280;64750;52.134;5.424;2023-07-29T02:28:26;100816.09;;;18.57;82.07
72086;BME280;64750;52.134;5.424;2023-07-29T02:33:41;100811.78;;;18.56;82.30
72086;BME280;64750;52.134;5.424;2023-07-29T02:36:07;100823.94;;;18.59;82.12
72086;BME280;64750;52.134;5.424;2023-07-29T02:38:34;100826.72;;;18.57;81.90
72086;BME280;64750;52.134;5.424;2023-07-29T02:41:00;100825.06;;;18.56;82.31
72086;BME280;64750;52.134;5.424;2023-07-29T02:43:27;100817.38;;;18.53;82.13
72086;BME280;64750;52.134;5.424;2023-07-29T02:45:53;100816.81;;;18.49;82.56
72086;BME280;64750;52.134;5.424;2023-07-29T02:48:20;100818.91;;;18.46;82.22
72086;BME280;64750;52.134;5.424;2023-07-29T02:50:46;100812.22;;;18.42;82.19
72086;BME280;64750;52.134;5.424;2023-07-29T02:53:13;100810.84;;;18.38;82.53
72086;BME280;64750;52.134;5.424;2023-07-29T02:55:40;100804.69;;;18.37;82.36
72086;BME280;64750;52.134;5.424;2023-07-29T02:58:07;100813.91;;;18.33;82.64
72086;BME280;64750;52.134;5.424;2023-07-29T03:00:33;100805.09;;;18.32;83.00
72086;BME280;64750;52.134;5.424;2023-07-29T03:03:00;100807.22;;;18.29;82.83
72086;BME280;64750;52.134;5.424;2023-07-29T03:05:27;100815.34;;;18.27;83.09
72086;BME280;64750;52.134;5.424;2023-07-29T03:07:54;100808.63;;;18.23;83.00
72086;BME280;64750;52.134;5.424;2023-07-29T03:10:20;100806.94;;;18.22;83.13
72086;BME280;64750;52.134;5.424;2023-07-29T03:12:47;100799.13;;;18.20;83.43
72086;BME280;64750;52.134;5.424;2023-07-29T03:15:13;100794.47;;;18.23;83.48
72086;BME280;64750;52.134;5.424;2023-07-29T03:17:40;100796.00;;;18.25;83.43
72086;BME280;64750;52.134;5.424;2023-07-29T03:20:07;100793.22;;;18.27;83.25
72086;BME280;64750;52.134;5.424;2023-07-29T03:22:33;100799.38;;;18.27;83.32
72086;BME280;64750;52.134;5.424;2023-07-29T03:25:03;100796.88;;;18.26;83.09
72086;BME280;64750;52.134;5.424;2023-07-29T03:27:32;100795.03;;;18.26;83.07
72086;BME280;64750;52.134;5.424;2023-07-29T03:29:59;100798.53;;;18.27;83.11
72086;BME280;64750;52.134;5.424;2023-07-29T03:32:26;100797.69;;;18.26;83.09
72086;BME280;64750;52.134;5.424;2023-07-29T03:34:53;100808.34;;;18.26;83.28
72086;BME280;64750;52.134;5.424;2023-07-29T03:37:20;100798.97;;;18.22;83.36
72086;BME280;64750;52.134;5.424;2023-07-29T03:39:47;100802.19;;;18.26;83.03
72086;BME280;64750;52.134;5.424;2023-07-29T03:42:14;100794.06;;;18.27;82.63
72086;BME280;64750;52.134;5.424;2023-07-29T03:44:40;100796.00;;;18.25;83.20
72086;BME280;64750;52.134;5.424;2023-07-29T03:47:07;100795.88;;;18.27;83.09
72086;BME280;64750;52.134;5.424;2023-07-29T03:49:34;100790.41;;;18.28;82.58
72086;BME280;64750;52.134;5.424;2023-07-29T03:52:00;100805.81;;;18.25;83.01
72086;BME280;64750;52.134;5.424;2023-07-29T03:54:27;100799.69;;;18.24;82.91
72086;BME280;64750;52.134;5.424;2023-07-29T03:56:53;100800.66;;;18.23;82.87
72086;BME280;64750;52.134;5.424;2023-07-29T03:59:20;100802.34;;;18.24;82.88
72086;BME280;64750;52.134;5.424;2023-07-29T04:01:49;100807.25;;;18.19;82.78
72086;BME280;64750;52.134;5.424;2023-07-29T04:04:15;100810.59;;;18.21;82.79
72086;BME280;64750;52.134;5.424;2023-07-29T04:06:42;100805.25;;;18.21;82.84
72086;BME280;64750;52.134;5.424;2023-07-29T04:09:09;100803.47;;;18.22;82.37
72086;BME280;64750;52.134;5.424;2023-07-29T04:11:35;100814.22;;;18.20;82.66
72086;BME280;64750;52.134;5.424;2023-07-29T04:14:02;100811.84;;;18.17;82.44
72086;BME280;64750;52.134;5.424;2023-07-29T04:16:28;100809.50;;;18.14;82.58
72086;BME280;64750;52.134;5.424;2023-07-29T04:18:55;100810.06;;;18.08;82.36
72086;BME280;64750;52.134;5.424;2023-07-29T04:21:21;100803.19;;;18.05;81.82
72086;BME280;64750;52.134;5.424;2023-07-29T04:23:48;100793.13;;;18.09;81.95
72086;BME280;64750;52.134;5.424;2023-07-29T04:26:14;100790.47;;;18.09;81.63
72086;BME280;64750;52.134;5.424;2023-07-29T04:28:41;100794.09;;;18.08;81.11
72086;BME280;64750;52.134;5.424;2023-07-29T04:31:09;100790.72;;;18.06;81.32
72086;BME280;64750;52.134;5.424;2023-07-29T04:33:35;100795.22;;;18.05;81.11
72086;BME280;64750;52.134;5.424;2023-07-29T04:36:03;100807.56;;;18.06;81.24
72086;BME280;64750;52.134;5.424;2023-07-29T04:38:33;100806.84;;;18.04;80.94
72086;BME280;64750;52.134;5.424;2023-07-29T04:41:00;100805.56;;;17.98;80.37
72086;BME280;64750;52.134;5.424;2023-07-29T04:43:30;100795.94;;;17.97;80.67
72086;BME280;64750;52.134;5.424;2023-07-29T04:45:57;100799.41;;;17.98;80.37
72086;BME280;64750;52.134;5.424;2023-07-29T04:48:24;100811.19;;;17.95;80.18
72086;BME280;64750;52.134;5.424;2023-07-29T04:50:50;100804.75;;;17.98;80.46
72086;BME280;64750;52.134;5.424;2023-07-29T04:53:17;100807.41;;;17.98;80.20
72086;BME280;64750;52.134;5.424;2023-07-29T04:55:43;100805.56;;;17.98;80.31
72086;BME280;64750;52.134;5.424;2023-07-29T04:58:10;100811.59;;;18.00;80.31
72086;BME280;64750;52.134;5.424;2023-07-29T05:00:37;100812.56;;;17.99;80.40
72086;BME280;64750;52.134;5.424;2023-07-29T05:03:03;100810.88;;;17.98;79.94
72086;BME280;64750;52.134;5.424;2023-07-29T05:05:30;100810.06;;;17.98;80.05
72086;BME280;64750;52.134;5.424;2023-07-29T05:08:00;100819.88;;;17.97;80.03
72086;BME280;64750;52.134;5.424;2023-07-29T05:10:29;100818.34;;;17.95;79.94
72086;BME280;64750;52.134;5.424;2023-07-29T05:12:55;100817.06;;;17.99;80.21
72086;BME280;64750;52.134;5.424;2023-07-29T05:15:22;100826.56;;;18.01;79.79
72086;BME280;64750;52.134;5.424;2023-07-29T05:17:49;100828.25;;;18.02;79.95
72086;BME280;64750;52.134;5.424;2023-07-29T05:20:15;100827.41;;;18.02;80.09
72086;BME280;64750;52.134;5.424;2023-07-29T05:22:42;100820.56;;;17.99;80.16
72086;BME280;64750;52.134;5.424;2023-07-29T05:25:08;100830.50;;;17.97;79.69
72086;BME280;64750;52.134;5.424;2023-07-29T05:27:35;100825.88;;;17.99;79.67
72086;BME280;64750;52.134;5.424;2023-07-29T05:30:02;100829.25;;;18.01;80.26
72086;BME280;64750;52.134;5.424;2023-07-29T05:32:28;100818.31;;;18.04;80.03
72086;BME280;64750;52.134;5.424;2023-07-29T05:34:56;100827.25;;;18.03;80.08
72086;BME280;64750;52.134;5.424;2023-07-29T05:37:22;100833.28;;;18.06;80.23
72086;BME280;64750;52.134;5.424;2023-07-29T05:39:48;100830.63;;;18.06;80.29
72086;BME280;64750;52.134;5.424;2023-07-29T05:42:15;100834.16;;;18.06;80.09
72086;BME280;64750;52.134;5.424;2023-07-29T05:44:41;100842.81;;;18.08;80.33
72086;BME280;64750;52.134;5.424;2023-07-29T05:47:08;100844.47;;;18.09;80.83
72086;BME280;64750;52.134;5.424;2023-07-29T05:49:34;100853.19;;;18.11;80.37
72086;BME280;64750;52.134;5.424;2023-07-29T05:52:01;100844.19;;;18.12;80.42
72086;BME280;64750;52.134;5.424;2023-07-29T05:54:27;100839.03;;;18.11;80.71
72086;BME280;64750;52.134;5.424;2023-07-29T05:56:54;100840.84;;;18.10;80.51
72086;BME280;64750;52.134;5.424;2023-07-29T05:59:20;100837.06;;;18.13;80.97
72086;BME280;64750;52.134;5.424;2023-07-29T06:01:47;100837.06;;;18.13;80.56
72086;BME280;64750;52.134;5.424;2023-07-29T06:04:14;100839.72;;;18.13;80.83
72086;BME280;64750;52.134;5.424;2023-07-29T06:06:40;100841.41;;;18.14;80.72
72086;BME280;64750;52.134;5.424;2023-07-29T06:09:06;100836.22;;;18.12;80.80
72086;BME280;64750;52.134;5.424;2023-07-29T06:11:33;100839.72;;;18.13;80.88
72086;BME280;64750;52.134;5.424;2023-07-29T06:13:59;100842.25;;;18.14;81.12
72086;BME280;64750;52.134;5.424;2023-07-29T06:16:29;100838.47;;;18.17;81.08
72086;BME280;64750;52.134;5.424;2023-07-29T06:18:55;100825.56;;;18.22;81.10
72086;BME280;64750;52.134;5.424;2023-07-29T06:21:22;100824.28;;;18.26;81.03
72086;BME280;64750;52.134;5.424;2023-07-29T06:23:48;100829.19;;;18.31;80.94
72086;BME280;64750;52.134;5.424;2023-07-29T06:26:15;100833.38;;;18.33;81.10
72086;BME280;64750;52.134;5.424;2023-07-29T06:28:41;100838.41;;;18.36;81.37
72086;BME280;64750;52.134;5.424;2023-07-29T06:31:08;100841.06;;;18.36;80.83
72086;BME280;64750;52.134;5.424;2023-07-29T06:33:34;100841.78;;;18.39;81.31
72086;BME280;64750;52.134;5.424;2023-07-29T06:36:01;100847.09;;;18.39;81.67
72086;BME280;64750;52.134;5.424;2023-07-29T06:38:27;100844.59;;;18.37;81.23
72086;BME280;64750;52.134;5.424;2023-07-29T06:40:54;100836.72;;;18.35;81.66
72086;BME280;64750;52.134;5.424;2023-07-29T06:43:20;100838.41;;;18.36;81.50
72086;BME280;64750;52.134;5.424;2023-07-29T06:45:47;100835.47;;;18.40;81.53
72086;BME280;64750;52.134;5.424;2023-07-29T06:48:14;100840.66;;;18.41;81.70
72086;BME280;64750;52.134;5.424;2023-07-29T06:50:40;100842.19;;;18.44;81.91
72086;BME280;64750;52.134;5.424;2023-07-29T06:53:07;100847.38;;;18.45;81.91
72086;BME280;64750;52.134;5.424;2023-07-29T06:55:33;100854.06;;;18.49;81.79
72086;BME280;64750;52.134;5.424;2023-07-29T06:58:00;100843.31;;;18.51;81.65
72086;BME280;64750;52.134;5.424;2023-07-29T07:00:26;100853.94;;;18.51;82.22
72086;BME280;64750;52.134;5.424;2023-07-29T07:02:53;100850.28;;;18.52;81.76
72086;BME280;64750;52.134;5.424;2023-07-29T07:05:20;100856.47;;;18.52;82.00
72086;BME280;64750;52.134;5.424;2023-07-29T07:07:46;100852.81;;;18.53;81.82
72086;BME280;64750;52.134;5.424;2023-07-29T07:10:14;100853.34;;;18.57;82.42
72086;BME280;64750;52.134;5.424;2023-07-29T07:12:40;100849.44;;;18.61;82.19
72086;BME280;64750;52.134;5.424;2023-07-29T07:15:07;100846.78;;;18.61;81.68
72086;BME280;64750;52.134;5.424;2023-07-29T07:17:34;100860.09;;;18.61;81.76
72086;BME280;64750;52.134;5.424;2023-07-29T07:20:01;100861.22;;;18.59;81.85
72086;BME280;64750;52.134;5.424;2023-07-29T07:22:27;100855.75;;;18.60;82.25
72086;BME280;64750;52.134;5.424;2023-07-29T07:24:53;100860.09;;;18.61;82.16
72086;BME280;64750;52.134;5.424;2023-07-29T07:27:20;100862.88;;;18.60;82.28
72086;BME280;64750;52.134;5.424;2023-07-29T07:29:46;100866.38;;;18.60;82.26
72086;BME280;64750;52.134;5.424;2023-07-29T07:32:13;100866.09;;;18.63;82.19
72086;BME280;64750;52.134;5.424;2023-07-29T07:34:39;100864.28;;;18.64;82.44
72086;BME280;64750;52.134;5.424;2023-07-29T07:37:06;100864.28;;;18.64;82.59
72086;BME280;64750;52.134;5.424;2023-07-29T07:39:32;100867.47;;;18.67;82.82
72086;BME280;64750;52.134;5.424;2023-07-29T07:41:59;100868.31;;;18.68;82.52
72086;BME280;64750;52.134;5.424;2023-07-29T07:44:28;100868.47;;;18.66;82.72
72086;BME280;64750;52.134;5.424;2023-07-29T07:46:54;100862.28;;;18.66;82.58
72086;BME280;64750;52.134;5.424;2023-07-29T07:49:22;100865.66;;;18.68;82.33
72086;BME280;64750;52.134;5.424;2023-07-29T07:51:48;100858.66;;;18.67;82.44
72086;BME280;64750;52.134;5.424;2023-07-29T07:54:15;100862.69;;;18.71;82.32
72086;BME280;64750;52.134;5.424;2023-07-29T07:56:42;100863.09;;;18.76;82.15
72086;BME280;64750;52.134;5.424;2023-07-29T07:59:09;100860.00;;;18.81;82.32
72086;BME280;64750;52.134;5.424;2023-07-29T08:01:37;100872.75;;;18.87;82.15
72086;BME280;64750;52.134;5.424;2023-07-29T08:04:04;100869.22;;;18.86;81.79
72086;BME280;64750;52.134;5.424;2023-07-29T08:06:31;100869.22;;;18.86;82.12
72086;BME280;64750;52.134;5.424;2023-07-29T08:08:58;100875.41;;;18.87;82.19
72086;BME280;64750;52.134;5.424;2023-07-29T08:11:27;100873.72;;;18.86;82.12
72086;BME280;64750;52.134;5.424;2023-07-29T08:13:53;100869.94;;;18.89;81.88
72086;BME280;64750;52.134;5.424;2023-07-29T08:16:19;100871.19;;;18.94;81.39
72086;BME280;64750;52.134;5.424;2023-07-29T08:18:46;100865.59;;;18.97;81.39
72086;BME280;64750;52.134;5.424;2023-07-29T08:21:13;100868.66;;;19.02;81.70
72086;BME280;64750;52.134;5.424;2023-07-29T08:23:40;100860.06;;;19.09;81.96
72086;BME280;64750;52.134;5.424;2023-07-29T08:26:06;100857.25;;;19.10;81.48
72086;BME280;64750;52.134;5.424;2023-07-29T08:28:38;100864.78;;;19.15;81.41
72086;BME280;64750;52.134;5.424;2023-07-29T08:31:06;100862.66;;;19.18;80.69
72086;BME280;64750;52.134;5.424;2023-07-29T08:33:33;100860.88;;;19.19;80.94
72086;BME280;64750;52.134;5.424;2023-07-29T08:36:01;100870.81;;;19.17;80.66
72086;BME280;64750;52.134;5.424;2023-07-29T08:38:27;100870.13;;;19.15;80.41
72086;BME280;64750;52.134;5.424;2023-07-29T08:41:31;100873.09;;;19.12;80.85
72086;BME280;64750;52.134;5.424;2023-07-29T08:44:18;100873.09;;;19.12;80.83
72086;BME280;64750;52.134;5.424;2023-07-29T08:46:47;100868.59;;;19.12;81.44
72086;BME280;64750;52.134;5.424;2023-07-29T08:49:15;100862.44;;;19.12;81.61
72086;BME280;64750;52.134;5.424;2023-07-29T08:51:48;100875.75;;;19.12;81.29
72086;BME280;64750;52.134;5.424;2023-07-29T08:54:15;100866.78;;;19.13;81.37
72086;BME280;64750;52.134;5.424;2023-07-29T08:56:42;100871.25;;;19.12;81.00
72086;BME280;64750;52.134;5.424;2023-07-29T08:59:10;100867.75;;;19.12;80.74
72086;BME280;64750;52.134;5.424;2023-07-29T09:01:38;100866.78;;;19.13;80.87
72086;BME280;64750;52.134;5.424;2023-07-29T09:04:05;100871.13;;;19.14;80.19
72086;BME280;64750;52.134;5.424;2023-07-29T09:06:32;100868.47;;;19.14;79.85
72086;BME280;64750;52.134;5.424;2023-07-29T09:09:01;100870.97;;;19.15;79.98
72086;BME280;64750;52.134;5.424;2023-07-29T09:11:28;100873.63;;;19.15;80.03
72086;BME280;64750;52.134;5.424;2023-07-29T09:13:56;100872.78;;;19.15;79.84
72086;BME280;64750;52.134;5.424;2023-07-29T09:16:23;100878.22;;;19.23;80.64
72086;BME280;64750;52.134;5.424;2023-07-29T09:18:50;100874.34;;;19.35;79.75
72086;BME280;64750;52.134;5.424;2023-07-29T09:21:24;100879.25;;;19.40;79.27
72086;BME280;64750;52.134;5.424;2023-07-29T09:23:55;100867.44;;;19.43;79.31
72086;BME280;64750;52.134;5.424;2023-07-29T09:26:26;100877.13;;;19.44;79.29
72086;BME280;64750;52.134;5.424;2023-07-29T09:28:57;100871.78;;;19.44;79.12
72086;BME280;64750;52.134;5.424;2023-07-29T09:31:28;100864.50;;;19.46;78.85
72086;BME280;64750;52.134;5.424;2023-07-29T09:33:58;100868.69;;;19.48;78.93
72086;BME280;64750;52.134;5.424;2023-07-29T09:36:26;100864.50;;;19.46;78.53
72086;BME280;64750;52.134;5.424;2023-07-29T09:38:56;100871.78;;;19.44;78.83
72086;BME280;64750;52.134;5.424;2023-07-29T09:41:24;100877.13;;;19.44;78.83
72086;BME280;64750;52.134;5.424;2023-07-29T09:43:56;100877.28;;;19.42;79.17
72086;BME280;64750;52.134;5.424;2023-07-29T09:46:24;100870.13;;;19.43;78.71
72086;BME280;64750;52.134;5.424;2023-07-29T09:48:53;100870.66;;;19.46;79.36
72086;BME280;64750;52.134;5.424;2023-07-29T09:51:23;100863.38;;;19.48;77.81
72086;BME280;64750;52.134;5.424;2023-07-29T09:53:51;100870.81;;;19.45;78.05
72086;BME280;64750;52.134;5.424;2023-07-29T09:56:25;100873.75;;;19.42;78.50
72086;BME280;64750;52.134;5.424;2023-07-29T09:58:55;100879.09;;;19.42;79.65
72086;BME280;64750;52.134;5.424;2023-07-29T10:01:23;100883.91;;;19.38;80.37
72086;BME280;64750;52.134;5.424;2023-07-29T10:03:50;100895.97;;;19.32;81.72
72086;BME280;64750;52.134;5.424;2023-07-29T10:06:17;100892.13;;;19.17;83.36
72086;BME280;64750;52.134;5.424;2023-07-29T10:08:44;100883.75;;;19.12;84.55
72086;BME280;64750;52.134;5.424;2023-07-29T10:11:11;100889.66;;;19.06;84.30
72086;BME280;64750;52.134;5.424;2023-07-29T10:13:38;100887.16;;;19.04;85.01
72086;BME280;64750;52.134;5.424;2023-07-29T10:16:05;100887.56;;;18.99;85.38
72086;BME280;64750;52.134;5.424;2023-07-29T10:18:33;100885.19;;;19.06;85.91
72086;BME280;64750;52.134;5.424;2023-07-29T10:21:01;100894.56;;;19.10;87.01
72086;BME280;64750;52.134;5.424;2023-07-29T10:23:32;100887.00;;;19.06;86.87
72086;BME280;64750;52.134;5.424;2023-07-29T10:26:04;100889.97;;;19.02;86.65
72086;BME280;64750;52.134;5.424;2023-07-29T10:28:32;100893.59;;;19.01;87.26
72086;BME280;64750;52.134;5.424;2023-07-29T10:30:59;100898.09;;;19.01;87.24
72086;BME280;64750;52.134;5.424;2023-07-29T10:33:26;100899.75;;;19.02;87.57
72086;BME280;64750;52.134;5.424;2023-07-29T10:35:53;100899.91;;;19.00;87.86
72086;BME280;64750;52.134;5.424;2023-07-29T10:38:22;100898.94;;;19.01;87.93
72086;BME280;64750;52.134;5.424;2023-07-29T10:40:54;100901.91;;;18.98;88.53
72086;BME280;64750;52.134;5.424;2023-07-29T10:43:27;100911.53;;;18.99;88.93
72086;BME280;64750;52.134;5.424;2023-07-29T10:45:56;100902.88;;;18.97;89.13
72086;BME280;64750;52.134;5.424;2023-07-29T10:48:41;100906.09;;;19.01;89.03
72086;BME280;64750;52.134;5.424;2023-07-29T10:51:34;100891.50;;;19.05;89.70
72086;BME280;64750;52.134;5.424;2023-07-29T10:54:10;100882.22;;;19.09;88.99
72086;BME280;64750;52.134;5.424;2023-07-29T10:56:40;100880.94;;;19.13;89.38
72086;BME280;64750;52.134;5.424;2023-07-29T11:01:52;100892.44;;;19.14;89.75
72086;BME280;64750;52.134;5.424;2023-07-29T11:04:29;100887.50;;;19.19;90.39
72086;BME280;64750;52.134;5.424;2023-07-29T11:12:47;100898.06;;;19.39;90.81
72086;BME280;64750;52.134;5.424;2023-07-29T11:15:27;100900.72;;;19.39;89.46
72086;BME280;64750;52.134;5.424;2023-07-29T11:17:56;100900.19;;;19.35;88.62
72086;BME280;64750;52.134;5.424;2023-07-29T11:20:29;100905.81;;;19.32;88.15
72086;BME280;64750;52.134;5.424;2023-07-29T11:22:58;100901.91;;;19.26;87.36
72086;BME280;64750;52.134;5.424;2023-07-29T11:25:26;100906.25;;;19.27;88.05
72086;BME280;64750;52.134;5.424;2023-07-29T11:27:55;100907.53;;;19.23;87.09
72086;BME280;64750;52.134;5.424;2023-07-29T11:30:22;100909.50;;;19.21;87.54
72086;BME280;64750;52.134;5.424;2023-07-29T11:32:59;100908.13;;;19.17;87.50
72086;BME280;64750;52.134;5.424;2023-07-29T11:35:26;100917.09;;;19.16;87.72
72086;BME280;64750;52.134;5.424;2023-07-29T11:37:54;100908.44;;;19.14;87.34
72086;BME280;64750;52.134;5.424;2023-07-29T11:40:23;100907.72;;;19.12;87.42
72086;BME280;64750;52.134;5.424;2023-07-29T11:42:51;100914.88;;;19.11;86.77
72086;BME280;64750;52.134;5.424;2023-07-29T11:45:19;100907.31;;;19.07;86.85
72086;BME280;64750;52.134;5.424;2023-07-29T11:47:46;100911.66;;;19.08;87.69
72086;BME280;64750;52.134;5.424;2023-07-29T11:50:14;100904.09;;;19.03;86.50
72086;BME280;64750;52.134;5.424;2023-07-29T11:52:43;100902.56;;;19.00;87.43
72086;BME280;64750;52.134;5.424;2023-07-29T11:55:11;100905.94;;;19.02;86.91
72086;BME280;64750;52.134;5.424;2023-07-29T11:57:39;100903.94;;;19.05;87.87
72086;BME280;64750;52.134;5.424;2023-07-29T12:00:08;100910.69;;;19.09;88.21
72086;BME280;64750;52.134;5.424;2023-07-29T12:02:38;100913.75;;;19.14;88.48
72086;BME280;64750;52.134;5.424;2023-07-29T12:05:06;100905.03;;;19.22;88.68
72086;BME280;64750;52.134;5.424;2023-07-29T12:07:35;100901.91;;;19.26;88.10
72086;BME280;64750;52.134;5.424;2023-07-29T12:10:03;100907.34;;;19.34;88.88
72086;BME280;64750;52.134;5.424;2023-07-29T12:12:30;100901.19;;;19.52;88.96
72086;BME280;64750;52.134;5.424;2023-07-29T12:14:56;100903.06;;;19.70;89.12
72086;BME280;64750;52.134;5.424;2023-07-29T12:17:23;100891.91;;;19.84;88.63
72086;BME280;64750;52.134;5.424;2023-07-29T12:19:54;100886.81;;;19.91;87.78
72086;BME280;64750;52.134;5.424;2023-07-29T12:22:20;100889.91;;;20.04;88.26
72086;BME280;64750;52.134;5.424;2023-07-29T12:24:47;100882.66;;;20.14;87.85
72086;BME280;64750;52.134;5.424;2023-07-29T12:27:17;100890.22;;;20.19;88.04
72086;BME280;64750;52.134;5.424;2023-07-29T12:29:43;100878.16;;;20.15;86.61
72086;BME280;64750;52.134;5.424;2023-07-29T12:32:10;100886.66;;;20.10;86.28
72086;BME280;64750;52.134;5.424;2023-07-29T12:34:38;100878.41;;;20.04;85.91
72086;BME280;64750;52.134;5.424;2023-07-29T12:37:08;100880.72;;;19.98;85.99
72086;BME280;64750;52.134;5.424;2023-07-29T12:39:39;100879.19;;;19.96;86.56
72086;BME280;64750;52.134;5.424;2023-07-29T12:42:06;100890.00;;;19.94;86.29
72086;BME280;64750;52.134;5.424;2023-07-29T12:44:34;100879.03;;;19.97;86.66
72086;BME280;64750;52.134;5.424;2023-07-29T12:47:02;100882.38;;;19.99;85.99
72086;BME280;64750;52.134;5.424;2023-07-29T12:49:29;100887.41;;;20.03;85.36
72086;BME280;64750;52.134;5.424;2023-07-29T12:51:57;100891.06;;;20.02;85.05
72086;BME280;64750;52.134;5.424;2023-07-29T12:54:23;100887.56;;;20.01;84.25
72086;BME280;64750;52.134;5.424;2023-07-29T12:56:50;100893.03;;;19.99;83.99
72086;BME280;64750;52.134;5.424;2023-07-29T12:59:17;100884.44;;;20.06;84.35
72086;BME280;64750;52.134;5.424;2023-07-29T13:01:43;100884.81;;;20.11;83.47
72086;BME280;64750;52.134;5.424;2023-07-29T13:04:10;100884.50;;;20.14;83.93
72086;BME280;64750;52.134;5.424;2023-07-29T13:06:37;100886.69;;;20.19;84.85
72086;BME280;64750;52.134;5.424;2023-07-29T13:09:04;100880.97;;;20.31;85.34